x

Capers Nearshore (cap 2) (41029) Weather Station

3:08am - Tue 24th Jan 2017 All times are EST. -5 hours from GMT.

  • Wind
    16mph, 20mph gusts
  • Sea Temp 56°f
  • Air Temp 56°f
  • Sea Pressure 1000.7mb
  • Capers Nearshore (cap 2)
  • Capers Nearshore (cap 2)

More Historic Weather Station data

Upgrade to MSW Pro to gain access to the past 30 days of data for over 8000 Wavebouys and Weather Stations around the globe.

Join Pro

Comparision Forecast

View Surf forecast
   
Tue 01/24 3:08am 16 20 mph 1000.7mb 56f 56f
2:08am 11 16 mph 1000.5mb 56f 56f
1:08am 11 13 mph 999.6mb 56f 56f
12:08am 11 13 mph 999.4mb 56f 57f
Mon 01/23 11:08pm 13 16 mph 999.3mb 56f 56f
10:08pm 16 20 mph 998.1mb 56f 57f
9:08pm 9 13 mph 997.2mb 56f 56f
8:08pm 11 16 mph 996.2mb 57f 57f
7:08pm 13 18 mph 995.4mb 57f 58f
6:08pm 16 20 mph 994.1mb 57f 58f
5:08pm 16 22 mph 993.1mb 57f 58f
4:08pm 16 20 mph 992.2mb 57f 57f
3:08pm 16 20 mph 990.9mb 57f 56f
2:08pm 20 27 mph 990.7mb 57f 55f
1:08pm 18 25 mph 990.8mb 57f 55f
12:08pm 20 27 mph 991.5mb 56f 55f
11:08am 20 25 mph 992.5mb 56f 55f
10:08am 16 20 mph 992.9mb 56f 57f
9:08am 16 20 mph 992.4mb 56f 57f
8:08am 18 25 mph 992.4mb 56f 57f
7:08am 13 18 mph 992.5mb 56f 58f
6:08am 11 16 mph 992.3mb 56f 57f
5:08am 11 16 mph 992.4mb 56f 57f
4:08am 11 18 mph 992.3mb 56f 57f
3:08am 16 20 mph 992.9mb 56f 57f
2:08am 22 29 mph 992.9mb 56f 58f
1:08am 27 34 mph 992.1mb 56f 59f
12:08am 29 38 mph 991.5mb 56f 62f
Sun 01/22 11:08pm 9 13 mph 991.5mb 56f 63f
10:08pm 18 27 mph 992.6mb 57f 63f
9:08pm 18 25 mph 993mb 56f 61f
8:08pm 22 31 mph 994.7mb 56f 60f
7:08pm 18 22 mph 995.4mb 56f 60f
6:08pm 11 16 mph 996.7mb 56f 59f
5:08pm 9 16 mph 998.2mb 56f 58f
4:08pm 7 13 mph 999.2mb 56f 58f
3:08pm 11 18 mph 1001.5mb 57f 59f
2:08pm 16 20 mph 999.7mb 57f 59f
1:08pm 16 25 mph 999.5mb 57f 58f
12:08pm 11 16 mph 1002.3mb 57f 58f
11:08am 4 7 mph 1003.5mb 57f 58f
10:08am 2 4 mph 1005.8mb 57f 59f
9:08am 7 13 mph 1004.8mb 56f 59f
8:08am 4 7 mph 1004mb 56f 58f
7:08am 4 9 mph 1005.5mb 56f 58f
6:08am 7 13 mph 1005.5mb 56f 58f
5:08am 13 18 mph 1005.1mb 56f 59f
4:08am 18 25 mph 1005.5mb 56f 60f
3:08am 9 16 mph 1005.6mb 56f 58f
2:08am 4 7 mph 1005.1mb 56f 57f
1:08am 7 11 mph 1005.3mb 56f 58f
12:08am 7 9 mph 1005.5mb 56f 58f
Sat 01/21 11:08pm 11 16 mph 1006.2mb 56f 60f
10:08pm 11 16 mph 1005.9mb 56f 59f
9:08pm 16 20 mph 1005.6mb 56f 59f
8:08pm 16 18 mph 1007.9mb 56f 58f
7:08pm 13 18 mph 1007.3mb 56f 58f
6:08pm 18 25 mph 1006.9mb 57f 58f
5:08pm 16 20 mph 1005.6mb 58f 62f
4:08pm 7 9 mph 1007.1mb 57f 60f
3:08pm 9 11 mph 1007.3mb 57f 60f
2:08pm 4 7 mph 1008.7mb 57f 59f
1:08pm 9 11 mph 1009.6mb 56f 60f
12:08pm 2 4 mph 1011.1mb 56f 58f
11:08am 4 7 mph 1012.6mb 56f 58f
10:08am 9 11 mph 1012.8mb 56f 58f
9:08am 9 13 mph 1012.6mb 56f 59f
8:08am 9 11 mph 1012.2mb 56f 59f
7:08am 7 11 mph 1012.1mb 56f 58f
6:08am 4 7 mph 1011.6mb 56f 58f
5:08am 4 7 mph 1011.5mb 56f 59f
4:08am 4 7 mph 1011.8mb - 58f
3:08am 4 7 mph 1012.3mb 56f 59f
2:08am 9 11 mph 1012.6mb 56f 58f
1:08am 7 9 mph 1012.6mb 56f 58f
12:08am 4 7 mph 1013mb 56f 58f
Fri 01/20 11:08pm 4 7 mph 1013.3mb 56f 58f
10:08pm 2 4 mph 1013.5mb 56f 57f
9:08pm 4 7 mph 1013.2mb 56f 57f
8:08pm 4 9 mph 1012.6mb 56f 57f
7:08pm 9 11 mph 1012mb 56f 58f
6:08pm 9 13 mph 1011.6mb 56f 58f
5:08pm 11 16 mph 1011mb 56f 59f
4:08pm 13 18 mph 1010.6mb 56f 60f
3:08pm 11 16 mph 1010.6mb 56f 59f
2:08pm 16 18 mph 1010.8mb 56f 60f
1:08pm 7 9 mph 1011.3mb 56f 59f
12:08pm 7 9 mph 1011.9mb 56f 59f
11:08am 9 11 mph 1012.9mb 56f 61f
10:08am 4 7 mph 1013.1mb 55f 60f